Prudhoe Bay, AK

6:06 AM AKST on February 13, 2016 (GMT -0900)
Deadhorse | | Change Station
CLOSE
Current Station
Airport
Location: Deadhorse,
Elevation: 59 ft
Nearby Weather Stations
Active Advisory: Blizzard Warning

Elev 59 ft 70.19 °N, 148.47 °W | Updated 13 minutes ago

Light Freezing Fog
Freezing Fog Blowing Snow
2 °F
Feels Like -26 °F
N
41
Wind Variable Wind from ENE
Gusts 52 mph

Today
High -- | Low -- °F
--% Chance of Precip.
Yesterday
High -- | Low -- °F
Precip. -- in
Pressure 29.67 in
Visibility 0.5 miles
Clouds Mostly Cloudy 600 ft
Overcast 1500 ft
Windchill -26 °F
Dew Point -2 °F
Humidity 83%
Rainfall 0.00 in
Snow Depth Not available.
9:39 AM 4:37 PM
Waxing Crescent, 31% visible
METAR PASC 131453Z 07036G45KT 1/2SM R05/2800V4500FT FZFG BLSN BKN006 OVC015 M17/M19 A2966 RMK AO2 PK WND 07045/1431 SLP046 6//// T11671189 55002 PNO $
Pressure 29.67 in
Visibility 0.5 miles
Clouds Mostly Cloudy 600 ft
Overcast 1500 ft
Windchill -26 °F
Dew Point -2 °F
Humidity 83%
Rainfall 0.00 in
Snow Depth Not available.
9:39 AM 4:37 PM
Waxing Crescent, 31% visible
METAR PASC 131453Z 07036G45KT 1/2SM R05/2800V4500FT FZFG BLSN BKN006 OVC015 M17/M19 A2966 RMK AO2 PK WND 07045/1431 SLP046 6//// T11671189 55002 PNO $

10-Day Weather Forecast

Almanac

Astronomy

Feb. 13, 2016 Rise Set
Actual Time
Civil Twilight
Nautical Twilight
Astronomical Twilight
Moon
Length of Visible Light
Length of Day
Tomorrow will be .
, % of the Moon is Illuminated

Today's Extremes

State Highs State Lows

Community

WunderPhotos

Upload Photos

1,892,572 photos uploaded!

WunderBlog® & News

Nearby

Air Quality

  Air Quality AQ Index Pollutant
Not available.

Snow Depth

Station Depth Elevation

Earthquake Activity

City Distance Mag. Time & Date
Minimum magnitude displayed is 2.5.

Coastal Water Temperatures

Place Temperature

Stations

Nearby Weather Stations

Station Location Temp. Windchill Dew Point Humidity Wind Precip. Elev Updated Type
                   

Watches & Warnings

Blizzard Warning
Issued: 3:54 AM AKST Feb. 13, 2016 – National Weather Service

... Blizzard Warning remains in effect until 6 am akst Sunday...

* blowing snow... blowing snow reducing visibility to one quarter
mile or less at times.

* Winds... east winds to 40 mph with gusts to 50 mph.

* Timing... blizzard conditions will continue through tonight. Slow
improvement in conditions will begin Sunday as winds start to
decrease.

* Impacts... visibility will be very poor and snow will
accumulate into drifts. Whiteout conditions will occur. Travel
and outdoor activities will be difficult.

Precautionary/preparedness actions...

A Blizzard Warning means severe winter weather conditions in
blowing snow with strong winds and very poor visibilities are
occurring or expected.